sensor_id;sensor_type;location;lat;lon;timestamp;P1;durP1;ratioP1;P2;durP2;ratioP2
24337;SDS011;12457;50.832;4.346;2023-04-06T00:02:05;23.23;;;12.15;;
24337;SDS011;12457;50.832;4.346;2023-04-06T00:04:31;22.00;;;12.52;;
24337;SDS011;12457;50.832;4.346;2023-04-06T00:06:57;22.10;;;12.30;;
24337;SDS011;12457;50.832;4.346;2023-04-06T00:09:22;22.92;;;12.30;;
24337;SDS011;12457;50.832;4.346;2023-04-06T00:11:48;28.17;;;12.18;;
24337;SDS011;12457;50.832;4.346;2023-04-06T00:14:15;25.65;;;13.15;;
24337;SDS011;12457;50.832;4.346;2023-04-06T00:16:43;23.80;;;13.32;;
24337;SDS011;12457;50.832;4.346;2023-04-06T00:19:09;26.98;;;12.55;;
24337;SDS011;12457;50.832;4.346;2023-04-06T00:21:35;24.08;;;12.40;;
24337;SDS011;12457;50.832;4.346;2023-04-06T00:24:02;20.45;;;12.90;;
24337;SDS011;12457;50.832;4.346;2023-04-06T00:26:28;23.23;;;12.55;;
24337;SDS011;12457;50.832;4.346;2023-04-06T00:28:54;23.80;;;11.35;;
24337;SDS011;12457;50.832;4.346;2023-04-06T00:34:43;20.50;;;11.77;;
24337;SDS011;12457;50.832;4.346;2023-04-06T00:37:08;18.73;;;11.25;;
24337;SDS011;12457;50.832;4.346;2023-04-06T00:39:34;21.67;;;11.57;;
24337;SDS011;12457;50.832;4.346;2023-04-06T00:42:00;22.67;;;11.60;;
24337;SDS011;12457;50.832;4.346;2023-04-06T00:44:37;20.10;;;12.00;;
24337;SDS011;12457;50.832;4.346;2023-04-06T00:47:03;24.00;;;12.02;;
24337;SDS011;12457;50.832;4.346;2023-04-06T00:49:29;23.23;;;11.80;;
24337;SDS011;12457;50.832;4.346;2023-04-06T00:51:55;23.65;;;12.15;;
24337;SDS011;12457;50.832;4.346;2023-04-06T00:54:20;23.30;;;11.85;;
24337;SDS011;12457;50.832;4.346;2023-04-06T00:56:46;24.95;;;12.60;;
24337;SDS011;12457;50.832;4.346;2023-04-06T00:59:12;27.05;;;12.27;;
24337;SDS011;12457;50.832;4.346;2023-04-06T01:01:38;23.25;;;12.27;;
24337;SDS011;12457;50.832;4.346;2023-04-06T01:04:03;23.42;;;12.85;;
24337;SDS011;12457;50.832;4.346;2023-04-06T01:06:29;24.60;;;12.45;;
24337;SDS011;12457;50.832;4.346;2023-04-06T01:08:55;30.25;;;12.45;;
24337;SDS011;12457;50.832;4.346;2023-04-06T01:11:20;22.10;;;12.02;;
24337;SDS011;12457;50.832;4.346;2023-04-06T01:13:46;25.25;;;13.07;;
24337;SDS011;12457;50.832;4.346;2023-04-06T01:16:12;21.23;;;11.90;;
24337;SDS011;12457;50.832;4.346;2023-04-06T01:18:38;25.02;;;12.30;;
24337;SDS011;12457;50.832;4.346;2023-04-06T01:21:04;26.50;;;14.20;;
24337;SDS011;12457;50.832;4.346;2023-04-06T01:23:30;26.80;;;12.88;;
24337;SDS011;12457;50.832;4.346;2023-04-06T01:25:56;23.83;;;13.93;;
24337;SDS011;12457;50.832;4.346;2023-04-06T01:28:21;20.95;;;13.00;;
24337;SDS011;12457;50.832;4.346;2023-04-06T01:30:52;24.10;;;13.20;;
24337;SDS011;12457;50.832;4.346;2023-04-06T01:33:18;23.33;;;13.93;;
24337;SDS011;12457;50.832;4.346;2023-04-06T01:35:44;22.92;;;13.10;;
24337;SDS011;12457;50.832;4.346;2023-04-06T01:38:09;31.40;;;13.98;;
24337;SDS011;12457;50.832;4.346;2023-04-06T01:40:35;25.08;;;13.65;;
24337;SDS011;12457;50.832;4.346;2023-04-06T01:43:01;32.45;;;14.68;;
24337;SDS011;12457;50.832;4.346;2023-04-06T01:45:27;26.05;;;13.55;;
24337;SDS011;12457;50.832;4.346;2023-04-06T01:47:52;27.73;;;14.18;;
24337;SDS011;12457;50.832;4.346;2023-04-06T01:50:18;26.65;;;13.80;;
24337;SDS011;12457;50.832;4.346;2023-04-06T01:52:44;29.13;;;14.02;;
24337;SDS011;12457;50.832;4.346;2023-04-06T01:55:10;29.73;;;14.20;;
24337;SDS011;12457;50.832;4.346;2023-04-06T01:57:36;28.83;;;13.85;;
24337;SDS011;12457;50.832;4.346;2023-04-06T02:00:02;31.23;;;13.82;;
24337;SDS011;12457;50.832;4.346;2023-04-06T02:02:28;24.33;;;13.55;;
24337;SDS011;12457;50.832;4.346;2023-04-06T02:04:53;22.60;;;13.32;;
24337;SDS011;12457;50.832;4.346;2023-04-06T02:07:19;25.73;;;14.27;;
24337;SDS011;12457;50.832;4.346;2023-04-06T02:09:46;22.55;;;13.27;;
24337;SDS011;12457;50.832;4.346;2023-04-06T02:12:13;22.73;;;13.65;;
24337;SDS011;12457;50.832;4.346;2023-04-06T02:14:39;24.73;;;13.20;;
24337;SDS011;12457;50.832;4.346;2023-04-06T02:20:01;24.77;;;13.68;;
24337;SDS011;12457;50.832;4.346;2023-04-06T02:22:27;34.08;;;14.20;;
24337;SDS011;12457;50.832;4.346;2023-04-06T02:24:52;24.98;;;13.75;;
24337;SDS011;12457;50.832;4.346;2023-04-06T02:27:18;26.73;;;14.05;;
24337;SDS011;12457;50.832;4.346;2023-04-06T02:29:44;24.08;;;14.13;;
24337;SDS011;12457;50.832;4.346;2023-04-06T02:32:10;23.05;;;12.95;;
24337;SDS011;12457;50.832;4.346;2023-04-06T02:34:36;32.00;;;13.60;;
24337;SDS011;12457;50.832;4.346;2023-04-06T02:37:01;28.27;;;13.07;;
24337;SDS011;12457;50.832;4.346;2023-04-06T02:39:28;24.77;;;12.90;;
24337;SDS011;12457;50.832;4.346;2023-04-06T02:41:54;26.98;;;14.05;;
24337;SDS011;12457;50.832;4.346;2023-04-06T02:44:21;27.48;;;13.95;;
24337;SDS011;12457;50.832;4.346;2023-04-06T02:46:49;25.88;;;14.38;;
24337;SDS011;12457;50.832;4.346;2023-04-06T02:49:15;24.85;;;13.55;;
24337;SDS011;12457;50.832;4.346;2023-04-06T02:51:41;22.30;;;12.75;;
24337;SDS011;12457;50.832;4.346;2023-04-06T02:54:07;24.73;;;13.38;;
24337;SDS011;12457;50.832;4.346;2023-04-06T02:56:32;27.13;;;13.07;;
24337;SDS011;12457;50.832;4.346;2023-04-06T02:58:58;27.67;;;14.77;;
24337;SDS011;12457;50.832;4.346;2023-04-06T03:01:24;24.20;;;13.57;;
24337;SDS011;12457;50.832;4.346;2023-04-06T03:03:50;26.23;;;14.25;;
24337;SDS011;12457;50.832;4.346;2023-04-06T03:06:16;26.42;;;13.43;;
24337;SDS011;12457;50.832;4.346;2023-04-06T03:08:43;25.02;;;13.52;;
24337;SDS011;12457;50.832;4.346;2023-04-06T03:11:09;22.92;;;13.27;;
24337;SDS011;12457;50.832;4.346;2023-04-06T03:13:36;26.30;;;13.80;;
24337;SDS011;12457;50.832;4.346;2023-04-06T03:16:15;25.70;;;13.48;;
24337;SDS011;12457;50.832;4.346;2023-04-06T03:18:41;22.55;;;13.25;;
24337;SDS011;12457;50.832;4.346;2023-04-06T03:21:06;23.55;;;13.05;;
24337;SDS011;12457;50.832;4.346;2023-04-06T03:23:32;24.77;;;14.70;;
24337;SDS011;12457;50.832;4.346;2023-04-06T03:25:58;21.30;;;13.07;;
24337;SDS011;12457;50.832;4.346;2023-04-06T03:28:23;25.27;;;14.07;;
24337;SDS011;12457;50.832;4.346;2023-04-06T03:30:49;26.05;;;13.63;;
24337;SDS011;12457;50.832;4.346;2023-04-06T03:33:15;28.33;;;14.45;;
24337;SDS011;12457;50.832;4.346;2023-04-06T03:35:40;28.38;;;13.60;;
24337;SDS011;12457;50.832;4.346;2023-04-06T03:38:06;23.55;;;13.57;;
24337;SDS011;12457;50.832;4.346;2023-04-06T03:40:32;25.42;;;14.65;;
24337;SDS011;12457;50.832;4.346;2023-04-06T03:42:57;23.60;;;14.13;;
24337;SDS011;12457;50.832;4.346;2023-04-06T03:45:23;25.35;;;13.05;;
24337;SDS011;12457;50.832;4.346;2023-04-06T03:47:49;25.48;;;13.85;;
24337;SDS011;12457;50.832;4.346;2023-04-06T03:50:15;29.73;;;14.07;;
24337;SDS011;12457;50.832;4.346;2023-04-06T03:52:40;26.15;;;13.93;;
24337;SDS011;12457;50.832;4.346;2023-04-06T03:55:06;23.75;;;13.75;;
24337;SDS011;12457;50.832;4.346;2023-04-06T03:57:32;23.17;;;13.93;;
24337;SDS011;12457;50.832;4.346;2023-04-06T03:59:58;24.40;;;14.43;;
24337;SDS011;12457;50.832;4.346;2023-04-06T04:05:28;21.75;;;13.65;;
24337;SDS011;12457;50.832;4.346;2023-04-06T04:07:54;28.77;;;13.48;;
24337;SDS011;12457;50.832;4.346;2023-04-06T04:10:20;26.45;;;14.90;;
24337;SDS011;12457;50.832;4.346;2023-04-06T04:12:46;24.27;;;14.43;;
24337;SDS011;12457;50.832;4.346;2023-04-06T04:15:12;22.02;;;13.45;;
24337;SDS011;12457;50.832;4.346;2023-04-06T04:17:42;25.20;;;14.50;;
24337;SDS011;12457;50.832;4.346;2023-04-06T04:20:11;25.77;;;14.13;;
24337;SDS011;12457;50.832;4.346;2023-04-06T04:22:38;22.90;;;13.38;;
24337;SDS011;12457;50.832;4.346;2023-04-06T04:25:03;26.95;;;14.25;;
24337;SDS011;12457;50.832;4.346;2023-04-06T04:27:29;23.38;;;13.65;;
24337;SDS011;12457;50.832;4.346;2023-04-06T04:29:55;25.60;;;14.48;;
24337;SDS011;12457;50.832;4.346;2023-04-06T04:32:33;27.77;;;13.93;;
24337;SDS011;12457;50.832;4.346;2023-04-06T04:34:59;20.58;;;13.48;;
24337;SDS011;12457;50.832;4.346;2023-04-06T04:37:25;31.17;;;19.02;;
24337;SDS011;12457;50.832;4.346;2023-04-06T04:39:50;28.05;;;14.70;;
24337;SDS011;12457;50.832;4.346;2023-04-06T04:42:16;24.95;;;14.00;;
24337;SDS011;12457;50.832;4.346;2023-04-06T04:44:42;23.27;;;14.15;;
24337;SDS011;12457;50.832;4.346;2023-04-06T04:47:07;27.65;;;14.18;;
24337;SDS011;12457;50.832;4.346;2023-04-06T04:49:33;28.85;;;15.70;;
24337;SDS011;12457;50.832;4.346;2023-04-06T04:51:59;26.13;;;13.82;;
24337;SDS011;12457;50.832;4.346;2023-04-06T04:54:24;24.35;;;14.88;;
24337;SDS011;12457;50.832;4.346;2023-04-06T04:56:50;29.40;;;15.40;;
24337;SDS011;12457;50.832;4.346;2023-04-06T04:59:16;25.15;;;14.70;;
24337;SDS011;12457;50.832;4.346;2023-04-06T05:01:42;29.90;;;15.68;;
24337;SDS011;12457;50.832;4.346;2023-04-06T05:04:08;29.13;;;14.60;;
24337;SDS011;12457;50.832;4.346;2023-04-06T05:06:33;28.42;;;16.00;;
24337;SDS011;12457;50.832;4.346;2023-04-06T05:08:59;24.88;;;14.45;;
24337;SDS011;12457;50.832;4.346;2023-04-06T05:11:25;23.27;;;13.73;;
24337;SDS011;12457;50.832;4.346;2023-04-06T05:13:51;28.55;;;15.20;;
24337;SDS011;12457;50.832;4.346;2023-04-06T05:16:17;27.48;;;15.48;;
24337;SDS011;12457;50.832;4.346;2023-04-06T05:18:42;28.80;;;15.13;;
24337;SDS011;12457;50.832;4.346;2023-04-06T05:21:09;27.05;;;15.15;;
24337;SDS011;12457;50.832;4.346;2023-04-06T05:23:36;29.05;;;15.15;;
24337;SDS011;12457;50.832;4.346;2023-04-06T05:26:01;31.05;;;14.73;;
24337;SDS011;12457;50.832;4.346;2023-04-06T05:28:27;33.40;;;16.63;;
24337;SDS011;12457;50.832;4.346;2023-04-06T05:30:53;30.33;;;15.65;;
24337;SDS011;12457;50.832;4.346;2023-04-06T05:33:19;25.33;;;14.02;;
24337;SDS011;12457;50.832;4.346;2023-04-06T05:35:45;29.55;;;14.90;;
24337;SDS011;12457;50.832;4.346;2023-04-06T05:38:10;27.48;;;15.55;;
24337;SDS011;12457;50.832;4.346;2023-04-06T05:40:36;32.45;;;16.13;;
24337;SDS011;12457;50.832;4.346;2023-04-06T05:43:06;30.52;;;15.88;;
24337;SDS011;12457;50.832;4.346;2023-04-06T05:45:33;26.35;;;15.80;;
24337;SDS011;12457;50.832;4.346;2023-04-06T05:47:59;35.47;;;16.83;;
24337;SDS011;12457;50.832;4.346;2023-04-06T05:50:26;28.20;;;16.05;;
24337;SDS011;12457;50.832;4.346;2023-04-06T05:52:52;32.00;;;15.88;;
24337;SDS011;12457;50.832;4.346;2023-04-06T05:55:17;39.83;;;16.50;;
24337;SDS011;12457;50.832;4.346;2023-04-06T05:57:43;34.67;;;16.48;;
24337;SDS011;12457;50.832;4.346;2023-04-06T06:00:09;31.10;;;16.88;;
24337;SDS011;12457;50.832;4.346;2023-04-06T06:02:44;35.00;;;16.85;;
24337;SDS011;12457;50.832;4.346;2023-04-06T06:05:10;29.55;;;16.02;;
24337;SDS011;12457;50.832;4.346;2023-04-06T06:07:36;33.35;;;16.23;;
24337;SDS011;12457;50.832;4.346;2023-04-06T06:10:02;29.33;;;16.58;;
24337;SDS011;12457;50.832;4.346;2023-04-06T06:12:27;26.90;;;16.15;;
24337;SDS011;12457;50.832;4.346;2023-04-06T06:14:53;32.72;;;16.90;;
24337;SDS011;12457;50.832;4.346;2023-04-06T06:17:19;52.17;;;16.30;;
24337;SDS011;12457;50.832;4.346;2023-04-06T06:19:48;34.95;;;17.17;;
24337;SDS011;12457;50.832;4.346;2023-04-06T06:22:13;34.22;;;17.17;;
24337;SDS011;12457;50.832;4.346;2023-04-06T06:24:39;33.38;;;17.23;;
24337;SDS011;12457;50.832;4.346;2023-04-06T06:27:05;29.58;;;15.85;;
24337;SDS011;12457;50.832;4.346;2023-04-06T06:29:32;29.58;;;17.20;;
24337;SDS011;12457;50.832;4.346;2023-04-06T06:31:58;36.45;;;17.33;;
24337;SDS011;12457;50.832;4.346;2023-04-06T06:34:24;33.95;;;17.45;;
24337;SDS011;12457;50.832;4.346;2023-04-06T06:36:50;32.83;;;17.80;;
24337;SDS011;12457;50.832;4.346;2023-04-06T06:39:16;45.25;;;18.33;;
24337;SDS011;12457;50.832;4.346;2023-04-06T06:41:42;41.05;;;18.67;;
24337;SDS011;12457;50.832;4.346;2023-04-06T06:44:07;30.55;;;18.08;;
24337;SDS011;12457;50.832;4.346;2023-04-06T06:46:33;33.00;;;17.73;;
24337;SDS011;12457;50.832;4.346;2023-04-06T06:49:02;37.97;;;18.70;;
24337;SDS011;12457;50.832;4.346;2023-04-06T06:51:28;40.00;;;19.25;;
24337;SDS011;12457;50.832;4.346;2023-04-06T06:53:54;33.40;;;18.92;;
24337;SDS011;12457;50.832;4.346;2023-04-06T06:56:19;36.65;;;18.63;;
24337;SDS011;12457;50.832;4.346;2023-04-06T06:58:45;32.88;;;20.52;;
24337;SDS011;12457;50.832;4.346;2023-04-06T07:01:11;38.72;;;19.70;;
24337;SDS011;12457;50.832;4.346;2023-04-06T07:03:36;35.30;;;18.38;;
24337;SDS011;12457;50.832;4.346;2023-04-06T07:06:02;33.55;;;19.33;;
24337;SDS011;12457;50.832;4.346;2023-04-06T07:08:28;32.03;;;18.00;;
24337;SDS011;12457;50.832;4.346;2023-04-06T07:10:54;35.22;;;17.98;;
24337;SDS011;12457;50.832;4.346;2023-04-06T07:13:22;35.03;;;19.15;;
24337;SDS011;12457;50.832;4.346;2023-04-06T07:15:49;33.58;;;18.00;;
24337;SDS011;12457;50.832;4.346;2023-04-06T07:18:15;37.53;;;20.00;;
24337;SDS011;12457;50.832;4.346;2023-04-06T07:20:42;34.80;;;19.38;;
24337;SDS011;12457;50.832;4.346;2023-04-06T07:23:07;32.85;;;18.67;;
24337;SDS011;12457;50.832;4.346;2023-04-06T07:25:33;34.70;;;16.88;;
24337;SDS011;12457;50.832;4.346;2023-04-06T07:28:01;31.27;;;16.33;;
24337;SDS011;12457;50.832;4.346;2023-04-06T07:30:27;25.45;;;16.13;;
24337;SDS011;12457;50.832;4.346;2023-04-06T07:32:54;26.90;;;16.10;;
24337;SDS011;12457;50.832;4.346;2023-04-06T07:35:21;26.23;;;14.55;;
24337;SDS011;12457;50.832;4.346;2023-04-06T07:37:51;25.40;;;15.02;;
24337;SDS011;12457;50.832;4.346;2023-04-06T07:40:17;35.63;;;15.27;;
24337;SDS011;12457;50.832;4.346;2023-04-06T07:42:44;22.17;;;14.10;;
24337;SDS011;12457;50.832;4.346;2023-04-06T07:45:11;24.08;;;13.43;;
24337;SDS011;12457;50.832;4.346;2023-04-06T07:47:37;22.52;;;13.00;;
24337;SDS011;12457;50.832;4.346;2023-04-06T07:50:03;24.58;;;13.45;;
24337;SDS011;12457;50.832;4.346;2023-04-06T07:52:30;19.40;;;12.10;;
24337;SDS011;12457;50.832;4.346;2023-04-06T07:54:57;24.77;;;12.60;;
24337;SDS011;12457;50.832;4.346;2023-04-06T07:57:23;23.00;;;13.00;;
24337;SDS011;12457;50.832;4.346;2023-04-06T07:59:49;23.70;;;12.35;;
24337;SDS011;12457;50.832;4.346;2023-04-06T08:02:15;22.80;;;13.55;;
24337;SDS011;12457;50.832;4.346;2023-04-06T08:04:40;23.50;;;12.68;;
24337;SDS011;12457;50.832;4.346;2023-04-06T08:07:06;20.85;;;12.02;;
24337;SDS011;12457;50.832;4.346;2023-04-06T08:09:32;20.13;;;12.48;;
24337;SDS011;12457;50.832;4.346;2023-04-06T08:11:58;20.02;;;12.20;;
24337;SDS011;12457;50.832;4.346;2023-04-06T08:14:24;21.92;;;12.52;;
24337;SDS011;12457;50.832;4.346;2023-04-06T08:16:49;23.42;;;12.98;;
24337;SDS011;12457;50.832;4.346;2023-04-06T08:19:15;21.13;;;12.02;;
24337;SDS011;12457;50.832;4.346;2023-04-06T08:21:43;22.48;;;12.38;;
24337;SDS011;12457;50.832;4.346;2023-04-06T08:24:12;21.90;;;13.10;;
24337;SDS011;12457;50.832;4.346;2023-04-06T08:26:38;25.38;;;13.75;;
24337;SDS011;12457;50.832;4.346;2023-04-06T08:29:05;27.02;;;13.73;;
24337;SDS011;12457;50.832;4.346;2023-04-06T08:31:34;20.90;;;11.32;;
24337;SDS011;12457;50.832;4.346;2023-04-06T08:34:01;21.92;;;12.13;;
24337;SDS011;12457;50.832;4.346;2023-04-06T08:36:28;21.73;;;11.07;;
24337;SDS011;12457;50.832;4.346;2023-04-06T08:38:54;24.83;;;12.50;;
24337;SDS011;12457;50.832;4.346;2023-04-06T08:41:20;28.27;;;13.38;;
24337;SDS011;12457;50.832;4.346;2023-04-06T08:43:50;27.83;;;12.63;;
24337;SDS011;12457;50.832;4.346;2023-04-06T08:46:21;20.73;;;11.10;;
24337;SDS011;12457;50.832;4.346;2023-04-06T08:48:55;16.42;;;10.63;;
24337;SDS011;12457;50.832;4.346;2023-04-06T08:51:25;18.45;;;11.35;;
24337;SDS011;12457;50.832;4.346;2023-04-06T08:53:54;30.75;;;13.23;;
24337;SDS011;12457;50.832;4.346;2023-04-06T08:56:22;21.98;;;12.13;;
24337;SDS011;12457;50.832;4.346;2023-04-06T08:58:52;21.05;;;12.27;;
24337;SDS011;12457;50.832;4.346;2023-04-06T09:01:26;23.45;;;13.48;;
24337;SDS011;12457;50.832;4.346;2023-04-06T09:03:56;21.05;;;12.15;;
24337;SDS011;12457;50.832;4.346;2023-04-06T09:06:24;28.58;;;14.02;;
24337;SDS011;12457;50.832;4.346;2023-04-06T09:08:51;25.98;;;14.27;;
24337;SDS011;12457;50.832;4.346;2023-04-06T09:11:17;30.13;;;13.68;;
24337;SDS011;12457;50.832;4.346;2023-04-06T09:13:50;30.35;;;13.88;;
24337;SDS011;12457;50.832;4.346;2023-04-06T09:16:18;21.23;;;12.73;;
24337;SDS011;12457;50.832;4.346;2023-04-06T09:18:45;20.33;;;12.20;;
24337;SDS011;12457;50.832;4.346;2023-04-06T09:21:12;20.85;;;13.02;;
24337;SDS011;12457;50.832;4.346;2023-04-06T09:23:38;24.58;;;13.40;;
24337;SDS011;12457;50.832;4.346;2023-04-06T09:26:14;20.80;;;12.75;;
24337;SDS011;12457;50.832;4.346;2023-04-06T09:31:12;24.65;;;13.43;;
24337;SDS011;12457;50.832;4.346;2023-04-06T09:33:42;22.98;;;14.25;;
24337;SDS011;12457;50.832;4.346;2023-04-06T09:36:09;19.73;;;11.18;;
24337;SDS011;12457;50.832;4.346;2023-04-06T09:38:39;20.70;;;10.57;;
24337;SDS011;12457;50.832;4.346;2023-04-06T09:43:49;23.58;;;12.85;;
24337;SDS011;12457;50.832;4.346;2023-04-06T09:46:27;20.38;;;12.82;;
24337;SDS011;12457;50.832;4.346;2023-04-06T09:48:58;20.70;;;12.13;;
24337;SDS011;12457;50.832;4.346;2023-04-06T09:51:33;16.92;;;11.52;;
24337;SDS011;12457;50.832;4.346;2023-04-06T09:54:05;20.52;;;12.25;;
24337;SDS011;12457;50.832;4.346;2023-04-06T10:05:22;23.90;;;13.02;;
24337;SDS011;12457;50.832;4.346;2023-04-06T10:07:57;22.13;;;12.70;;
24337;SDS011;12457;50.832;4.346;2023-04-06T10:10:26;18.45;;;11.52;;
24337;SDS011;12457;50.832;4.346;2023-04-06T10:12:53;21.17;;;11.40;;
24337;SDS011;12457;50.832;4.346;2023-04-06T10:15:21;20.05;;;13.55;;
24337;SDS011;12457;50.832;4.346;2023-04-06T10:17:46;25.35;;;12.88;;
24337;SDS011;12457;50.832;4.346;2023-04-06T10:22:41;18.90;;;11.57;;
24337;SDS011;12457;50.832;4.346;2023-04-06T10:25:25;17.52;;;11.07;;
24337;SDS011;12457;50.832;4.346;2023-04-06T10:27:58;22.20;;;14.52;;
24337;SDS011;12457;50.832;4.346;2023-04-06T10:30:32;17.02;;;11.27;;
24337;SDS011;12457;50.832;4.346;2023-04-06T10:32:58;21.77;;;12.52;;
24337;SDS011;12457;50.832;4.346;2023-04-06T10:35:25;22.10;;;12.90;;
24337;SDS011;12457;50.832;4.346;2023-04-06T10:38:03;19.55;;;12.85;;
24337;SDS011;12457;50.832;4.346;2023-04-06T10:40:29;16.80;;;12.00;;
24337;SDS011;12457;50.832;4.346;2023-04-06T10:43:06;22.30;;;13.98;;
24337;SDS011;12457;50.832;4.346;2023-04-06T10:45:43;23.25;;;12.75;;
24337;SDS011;12457;50.832;4.346;2023-04-06T10:48:14;19.10;;;12.07;;
24337;SDS011;12457;50.832;4.346;2023-04-06T10:50:47;23.27;;;13.10;;
24337;SDS011;12457;50.832;4.346;2023-04-06T10:53:27;18.65;;;11.50;;
24337;SDS011;12457;50.832;4.346;2023-04-06T10:56:01;18.83;;;11.15;;
24337;SDS011;12457;50.832;4.346;2023-04-06T10:58:28;23.88;;;12.35;;
24337;SDS011;12457;50.832;4.346;2023-04-06T11:00:55;22.17;;;13.25;;
24337;SDS011;12457;50.832;4.346;2023-04-06T11:03:21;22.75;;;12.90;;
24337;SDS011;12457;50.832;4.346;2023-04-06T11:05:48;22.63;;;13.00;;
24337;SDS011;12457;50.832;4.346;2023-04-06T11:08:36;22.10;;;12.93;;
24337;SDS011;12457;50.832;4.346;2023-04-06T11:11:10;19.85;;;13.32;;
24337;SDS011;12457;50.832;4.346;2023-04-06T11:16:12;22.75;;;12.43;;
24337;SDS011;12457;50.832;4.346;2023-04-06T11:18:49;21.00;;;13.23;;
24337;SDS011;12457;50.832;4.346;2023-04-06T11:21:15;25.52;;;12.88;;
24337;SDS011;12457;50.832;4.346;2023-04-06T11:23:40;26.35;;;13.75;;
24337;SDS011;12457;50.832;4.346;2023-04-06T11:26:10;21.02;;;13.35;;
24337;SDS011;12457;50.832;4.346;2023-04-06T11:28:40;19.83;;;13.20;;
24337;SDS011;12457;50.832;4.346;2023-04-06T11:31:11;22.30;;;14.55;;
24337;SDS011;12457;50.832;4.346;2023-04-06T11:33:37;18.23;;;11.70;;
24337;SDS011;12457;50.832;4.346;2023-04-06T11:38:52;21.75;;;11.95;;
24337;SDS011;12457;50.832;4.346;2023-04-06T11:41:18;21.23;;;13.93;;
24337;SDS011;12457;50.832;4.346;2023-04-06T11:43:48;19.58;;;12.80;;
24337;SDS011;12457;50.832;4.346;2023-04-06T11:46:17;19.40;;;11.85;;
24337;SDS011;12457;50.832;4.346;2023-04-06T11:48:46;17.00;;;11.90;;
24337;SDS011;12457;50.832;4.346;2023-04-06T11:51:21;21.60;;;12.60;;
24337;SDS011;12457;50.832;4.346;2023-04-06T11:53:48;20.08;;;11.80;;
24337;SDS011;12457;50.832;4.346;2023-04-06T11:56:27;16.30;;;11.38;;
24337;SDS011;12457;50.832;4.346;2023-04-06T11:58:55;22.88;;;13.45;;
24337;SDS011;12457;50.832;4.346;2023-04-06T12:01:22;22.13;;;12.68;;
24337;SDS011;12457;50.832;4.346;2023-04-06T12:03:49;22.40;;;13.32;;
24337;SDS011;12457;50.832;4.346;2023-04-06T12:06:16;20.20;;;13.77;;
24337;SDS011;12457;50.832;4.346;2023-04-06T12:08:42;20.67;;;13.48;;
24337;SDS011;12457;50.832;4.346;2023-04-06T12:11:07;21.60;;;12.63;;
24337;SDS011;12457;50.832;4.346;2023-04-06T12:13:33;23.15;;;14.68;;
24337;SDS011;12457;50.832;4.346;2023-04-06T12:15:59;23.33;;;12.75;;
24337;SDS011;12457;50.832;4.346;2023-04-06T12:18:25;19.55;;;12.13;;
24337;SDS011;12457;50.832;4.346;2023-04-06T12:20:51;21.00;;;13.07;;
24337;SDS011;12457;50.832;4.346;2023-04-06T12:23:17;22.63;;;13.48;;
24337;SDS011;12457;50.832;4.346;2023-04-06T12:25:43;19.50;;;13.05;;
24337;SDS011;12457;50.832;4.346;2023-04-06T12:28:09;21.85;;;13.35;;
24337;SDS011;12457;50.832;4.346;2023-04-06T12:30:35;19.60;;;12.57;;
24337;SDS011;12457;50.832;4.346;2023-04-06T12:33:00;23.63;;;14.20;;
24337;SDS011;12457;50.832;4.346;2023-04-06T12:35:26;18.88;;;12.88;;
24337;SDS011;12457;50.832;4.346;2023-04-06T12:37:52;18.45;;;12.18;;
24337;SDS011;12457;50.832;4.346;2023-04-06T12:40:19;23.40;;;13.50;;
24337;SDS011;12457;50.832;4.346;2023-04-06T12:42:45;22.63;;;14.43;;
24337;SDS011;12457;50.832;4.346;2023-04-06T12:45:11;26.98;;;16.90;;
24337;SDS011;12457;50.832;4.346;2023-04-06T12:47:37;24.27;;;14.45;;
24337;SDS011;12457;50.832;4.346;2023-04-06T12:50:06;21.27;;;13.30;;
24337;SDS011;12457;50.832;4.346;2023-04-06T12:52:32;20.55;;;13.30;;
24337;SDS011;12457;50.832;4.346;2023-04-06T12:55:01;19.85;;;13.05;;
24337;SDS011;12457;50.832;4.346;2023-04-06T12:57:28;20.00;;;13.63;;
24337;SDS011;12457;50.832;4.346;2023-04-06T12:59:53;20.95;;;14.30;;
24337;SDS011;12457;50.832;4.346;2023-04-06T13:02:19;18.52;;;12.82;;
24337;SDS011;12457;50.832;4.346;2023-04-06T13:04:46;27.40;;;16.90;;
24337;SDS011;12457;50.832;4.346;2023-04-06T13:07:13;22.08;;;15.70;;
24337;SDS011;12457;50.832;4.346;2023-04-06T13:09:39;24.45;;;13.93;;
24337;SDS011;12457;50.832;4.346;2023-04-06T13:12:05;24.70;;;15.70;;
24337;SDS011;12457;50.832;4.346;2023-04-06T13:14:30;25.98;;;14.60;;
24337;SDS011;12457;50.832;4.346;2023-04-06T13:16:56;20.65;;;14.38;;
24337;SDS011;12457;50.832;4.346;2023-04-06T13:19:22;23.05;;;14.38;;
24337;SDS011;12457;50.832;4.346;2023-04-06T13:21:48;25.25;;;16.02;;
24337;SDS011;12457;50.832;4.346;2023-04-06T13:24:14;26.83;;;15.82;;
24337;SDS011;12457;50.832;4.346;2023-04-06T13:26:40;23.90;;;15.60;;
24337;SDS011;12457;50.832;4.346;2023-04-06T13:29:05;23.35;;;14.23;;
24337;SDS011;12457;50.832;4.346;2023-04-06T13:31:31;25.02;;;15.98;;
24337;SDS011;12457;50.832;4.346;2023-04-06T13:33:57;26.85;;;14.85;;
24337;SDS011;12457;50.832;4.346;2023-04-06T13:36:23;25.00;;;14.77;;
24337;SDS011;12457;50.832;4.346;2023-04-06T13:38:51;22.30;;;14.77;;
24337;SDS011;12457;50.832;4.346;2023-04-06T13:41:18;28.48;;;16.40;;
24337;SDS011;12457;50.832;4.346;2023-04-06T13:43:46;27.58;;;15.65;;
24337;SDS011;12457;50.832;4.346;2023-04-06T13:46:11;23.40;;;14.80;;
24337;SDS011;12457;50.832;4.346;2023-04-06T13:48:37;27.33;;;15.73;;
24337;SDS011;12457;50.832;4.346;2023-04-06T13:51:10;28.17;;;18.00;;
24337;SDS011;12457;50.832;4.346;2023-04-06T13:53:36;28.65;;;17.90;;
24337;SDS011;12457;50.832;4.346;2023-04-06T13:56:02;21.25;;;15.50;;
24337;SDS011;12457;50.832;4.346;2023-04-06T13:58:29;28.92;;;16.42;;
24337;SDS011;12457;50.832;4.346;2023-04-06T14:01:01;34.45;;;19.25;;
24337;SDS011;12457;50.832;4.346;2023-04-06T14:03:31;29.17;;;18.20;;
24337;SDS011;12457;50.832;4.346;2023-04-06T14:05:57;24.58;;;17.15;;
24337;SDS011;12457;50.832;4.346;2023-04-06T14:08:24;29.08;;;18.30;;
24337;SDS011;12457;50.832;4.346;2023-04-06T14:10:50;29.50;;;17.90;;
24337;SDS011;12457;50.832;4.346;2023-04-06T14:13:16;26.23;;;17.00;;
24337;SDS011;12457;50.832;4.346;2023-04-06T14:15:43;32.47;;;20.35;;
24337;SDS011;12457;50.832;4.346;2023-04-06T14:18:10;24.55;;;16.70;;
24337;SDS011;12457;50.832;4.346;2023-04-06T14:20:36;25.65;;;15.98;;
24337;SDS011;12457;50.832;4.346;2023-04-06T14:23:02;22.75;;;14.88;;
24337;SDS011;12457;50.832;4.346;2023-04-06T14:25:28;22.20;;;15.25;;
24337;SDS011;12457;50.832;4.346;2023-04-06T14:27:56;22.20;;;15.93;;
24337;SDS011;12457;50.832;4.346;2023-04-06T14:30:22;24.65;;;16.42;;
24337;SDS011;12457;50.832;4.346;2023-04-06T14:32:47;26.52;;;16.02;;
24337;SDS011;12457;50.832;4.346;2023-04-06T14:35:13;24.90;;;17.02;;
24337;SDS011;12457;50.832;4.346;2023-04-06T14:37:48;30.85;;;18.50;;
24337;SDS011;12457;50.832;4.346;2023-04-06T14:40:14;27.98;;;17.83;;
24337;SDS011;12457;50.832;4.346;2023-04-06T14:42:40;27.00;;;17.60;;
24337;SDS011;12457;50.832;4.346;2023-04-06T14:45:06;23.48;;;17.08;;
24337;SDS011;12457;50.832;4.346;2023-04-06T14:47:32;26.00;;;17.48;;
24337;SDS011;12457;50.832;4.346;2023-04-06T14:49:58;35.00;;;21.80;;
24337;SDS011;12457;50.832;4.346;2023-04-06T14:52:23;31.30;;;18.25;;